Time;durP1;ratioP1;P1;durP2;ratioP2;P2;SDS_P1;SDS_P2;PMS_P1;PMS_P2;Temp;Humidity;BMP_temperature;BMP_pressure;BME280_temperature;BME280_humidity;BME280_pressure;Samples;Min_cycle;Max_cycle;Signal;HPM_P1;HPM_P2
2021/10/19 00:01:00;;;;;;;51.30;32.88;;;;;;;10.78;90.27;101542.24;1710788;83;27493;-83
2021/10/19 00:03:28;;;;;;;53.58;34.38;;;;;;;10.80;90.30;101549.61;1706264;83;26568;-83
2021/10/19 00:05:55;;;;;;;54.23;33.18;;;;;;;10.82;90.21;101548.09;1684869;83;25808;-83
2021/10/19 00:08:22;;;;;;;49.70;33.18;;;;;;;10.80;90.30;101544.75;1719943;82;25816;-83
2021/10/19 00:10:49;;;;;;;52.23;33.88;;;;;;;10.81;90.39;101550.46;1674758;83;25942;-82
2021/10/19 00:13:17;;;;;;;53.33;32.10;;;;;;;10.82;90.42;101552.13;1699962;83;27450;-83
2021/10/19 00:15:44;;;;;;;49.15;33.35;;;;;;;10.82;90.41;101550.28;1722284;82;25812;-83
2021/10/19 00:18:11;;;;;;;49.30;34.15;;;;;;;10.82;90.52;101545.42;1703172;83;25907;-83
2021/10/19 00:20:38;;;;;;;47.60;32.35;;;;;;;10.82;90.46;101542.25;1671763;83;26510;-83
2021/10/19 00:23:05;;;;;;;49.08;33.23;;;;;;;10.82;90.54;101540.06;1701031;83;25342;-83
2021/10/19 00:25:32;;;;;;;54.23;36.33;;;;;;;10.81;90.59;101539.74;1720037;82;27592;-82
2021/10/19 00:27:59;;;;;;;59.25;46.68;;;;;;;10.80;90.63;101546.09;1731555;82;25862;-83
2021/10/19 00:30:26;;;;;;;47.03;35.28;;;;;;;10.78;90.66;101542.24;1656230;82;25864;-83
2021/10/19 00:32:53;;;;;;;52.33;33.18;;;;;;;10.79;90.75;101541.25;1695380;82;26082;-82
2021/10/19 00:35:21;;;;;;;47.90;32.80;;;;;;;10.81;90.83;101542.42;1700997;82;25870;-83
2021/10/19 00:37:47;;;;;;;53.28;32.25;;;;;;;10.81;90.79;101541.92;1729887;82;27549;-83
2021/10/19 00:40:15;;;;;;;48.80;31.40;;;;;;;10.77;90.79;101539.25;1657770;82;25674;-83
2021/10/19 00:42:42;;;;;;;52.40;32.55;;;;;;;10.77;91.06;101538.40;1699642;83;25813;-83
2021/10/19 00:45:10;;;;;;;45.50;29.65;;;;;;;10.77;90.98;101541.92;1716749;82;26001;-83
2021/10/19 00:47:46;;;;;;;44.10;30.05;;;;;;;10.78;91.05;101540.05;1728394;82;25883;-83
2021/10/19 00:50:07;;;;;;;46.75;29.42;;;;;;;10.74;91.04;101536.88;1684120;82;27520;-83
2021/10/19 00:52:34;;;;;;;49.18;31.25;;;;;;;10.72;91.19;101538.05;1726267;80;25845;-82
2021/10/19 00:55:03;;;;;;;46.18;29.55;;;;;;;10.70;91.19;101541.39;1691281;83;26610;-83
2021/10/19 00:57:30;;;;;;;44.30;29.37;;;;;;;10.71;91.37;101535.05;1695834;83;26482;-83
2021/10/19 00:59:57;;;;;;;44.50;30.05;;;;;;;10.70;91.31;101535.53;1652074;84;25797;-82
2021/10/19 01:02:25;;;;;;;42.75;28.87;;;;;;;10.72;91.41;101541.56;1676242;84;28211;-82
2021/10/19 01:04:52;;;;;;;44.85;28.92;;;;;;;10.75;91.47;101540.41;1685386;83;25909;-83
2021/10/19 01:07:20;;;;;;;43.68;28.70;;;;;;;10.75;91.45;101535.89;1708061;83;25818;-82
2021/10/19 01:09:47;;;;;;;42.58;29.85;;;;;;;10.77;91.53;101535.72;1666072;83;25799;-82
2021/10/19 01:12:14;;;;;;;40.90;28.02;;;;;;;10.75;91.42;101534.55;1626566;84;26070;-83
2021/10/19 01:14:42;;;;;;;40.45;29.67;;;;;;;10.74;91.49;101538.22;1674508;84;27525;-82
2021/10/19 01:17:09;;;;;;;43.90;28.73;;;;;;;10.74;91.53;101535.54;1689338;83;25387;-83
2021/10/19 01:19:37;;;;;;;45.73;28.92;;;;;;;10.74;91.76;101543.58;1652685;84;26266;-83
2021/10/19 01:22:08;;;;;;;33.00;21.77;;;;;;;10.69;91.65;101535.19;1664795;84;25817;-83
2021/10/19 01:24:35;;;;;;;26.10;18.42;;;;;;;10.64;91.70;101523.30;1688783;83;26530;-83
2021/10/19 01:27:02;;;;;;;18.05;12.60;;;;;;;10.58;91.59;101524.81;1672381;84;26875;-82
2021/10/19 01:29:29;;;;;;;13.15;9.70;;;;;;;10.52;91.37;101525.44;1647994;84;25899;-83
2021/10/19 01:31:56;;;;;;;11.35;8.75;;;;;;;10.45;91.19;101528.95;1666877;84;26273;-83
2021/10/19 01:34:24;;;;;;;9.33;7.53;;;;;;;10.37;91.01;101533.77;1689402;83;26849;-82
2021/10/19 01:36:51;;;;;;;10.88;7.28;;;;;;;10.37;91.14;101523.58;1671776;83;26687;-83
2021/10/19 01:39:18;;;;;;;8.98;6.67;;;;;;;10.34;91.05;101520.72;1663550;84;27047;-83
2021/10/19 01:41:46;;;;;;;11.35;6.60;;;;;;;10.33;91.08;101527.58;1651259;86;25908;-83
2021/10/19 01:44:14;;;;;;;6.35;5.40;;;;;;;10.27;90.86;101521.02;1707263;83;26526;-83
2021/10/19 01:46:41;;;;;;;8.08;6.05;;;;;;;10.25;90.95;101520.34;1685487;84;26197;-83
2021/10/19 01:49:08;;;;;;;9.65;5.78;;;;;;;10.22;90.77;101521.18;1682725;81;26031;-83
2021/10/19 01:51:35;;;;;;;6.87;5.47;;;;;;;10.20;90.80;101517.83;1650870;86;27545;-82
2021/10/19 01:54:03;;;;;;;10.88;5.75;;;;;;;10.15;90.47;101519.65;1677823;83;26037;-82
2021/10/19 01:56:34;;;;;;;9.15;5.85;;;;;;;10.09;90.42;101512.23;1741023;80;25879;-82
2021/10/19 01:58:58;;;;;;;6.03;5.33;;;;;;;10.04;90.31;101515.39;1710582;80;25908;-83
2021/10/19 02:01:25;;;;;;;7.08;5.60;;;;;;;9.98;90.22;101517.38;1719613;81;26002;-83
2021/10/19 02:03:54;;;;;;;7.53;5.92;;;;;;;9.91;90.29;101512.31;1724879;80;27599;-83
2021/10/19 02:06:21;;;;;;;7.30;6.12;;;;;;;9.88;90.29;101516.64;1759824;80;25421;-83
2021/10/19 02:08:48;;;;;;;8.93;6.72;;;;;;;9.82;90.32;101517.28;1708078;83;26693;-82
2021/10/19 02:11:17;;;;;;;8.73;6.50;;;;;;;9.77;90.30;101517.44;1718904;81;26251;-82
2021/10/19 02:13:44;;;;;;;7.10;5.92;;;;;;;9.73;90.48;101514.74;1677326;83;25973;-83
2021/10/19 02:16:11;;;;;;;8.45;6.75;;;;;;;9.72;90.60;101522.41;1751940;80;28327;-83
2021/10/19 02:18:38;;;;;;;7.78;6.62;;;;;;;9.74;90.76;101517.74;1709041;81;25939;-83
2021/10/19 02:21:05;;;;;;;10.23;7.28;;;;;;;9.73;90.69;101518.23;1692546;83;25883;-82
2021/10/19 02:23:32;;;;;;;9.60;8.13;;;;;;;9.75;90.80;101514.89;1752717;80;25943;-83
2021/10/19 02:25:59;;;;;;;10.20;8.05;;;;;;;9.77;90.83;101516.91;1761802;80;25933;-83
2021/10/19 02:28:26;;;;;;;8.93;7.75;;;;;;;9.80;90.79;101527.31;1697066;83;27501;-83
2021/10/19 02:30:53;;;;;;;9.55;7.95;;;;;;;9.79;90.66;101522.97;1709157;80;26150;-83
2021/10/19 02:33:21;;;;;;;12.05;7.67;;;;;;;9.75;90.58;101518.91;1723557;82;25845;-84
2021/10/19 02:35:48;;;;;;;9.50;7.95;;;;;;;9.72;90.62;101525.09;1734999;81;27039;-83
2021/10/19 02:38:16;;;;;;;10.48;8.40;;;;;;;9.71;90.73;101533.61;1686370;81;25332;-83
2021/10/19 02:40:43;;;;;;;10.23;8.30;;;;;;;9.74;90.76;101539.14;1698947;83;27467;-83
2021/10/19 02:43:10;;;;;;;12.50;9.05;;;;;;;9.75;90.78;101532.28;1683288;82;25856;-83
2021/10/19 02:45:37;;;;;;;14.95;9.40;;;;;;;9.75;90.71;101540.84;1735806;81;25849;-83
2021/10/19 02:48:04;;;;;;;11.48;8.70;;;;;;;9.77;90.77;101534.83;1682138;84;26558;-82
2021/10/19 02:50:31;;;;;;;10.85;8.55;;;;;;;9.77;90.66;101544.19;1711237;83;26527;-83
2021/10/19 02:52:58;;;;;;;9.73;8.35;;;;;;;9.78;90.65;101542.69;1732035;81;27539;-83
2021/10/19 02:55:25;;;;;;;11.25;9.48;;;;;;;9.81;90.59;101545.55;1731105;81;26429;-83
2021/10/19 02:57:52;;;;;;;13.43;9.40;;;;;;;9.79;90.44;101541.70;1679659;82;25845;-83
2021/10/19 03:00:19;;;;;;;11.75;9.40;;;;;;;9.76;90.41;101546.51;1664969;84;25790;-82
2021/10/19 03:02:46;;;;;;;10.82;8.93;;;;;;;9.73;90.31;101550.34;1725516;81;25845;-83
2021/10/19 03:05:15;;;;;;;11.95;9.15;;;;;;;9.74;90.44;101546.68;1718840;83;28215;-83
2021/10/19 03:07:42;;;;;;;11.80;9.05;;;;;;;9.75;90.42;101547.53;1663455;84;25853;-83
2021/10/19 03:10:09;;;;;;;13.38;10.80;;;;;;;9.75;90.43;101548.34;1661428;84;25341;-83
2021/10/19 03:12:36;;;;;;;12.45;10.13;;;;;;;9.73;90.41;101542.83;1701903;82;25881;-83
2021/10/19 03:15:05;;;;;;;13.62;10.15;;;;;;;9.68;90.28;101541.13;1708924;82;26014;-83
2021/10/19 03:17:32;;;;;;;10.85;8.93;;;;;;;9.64;90.17;101539.77;1654561;85;27531;-83
2021/10/19 03:19:59;;;;;;;12.53;9.93;;;;;;;9.59;90.22;101540.72;1675483;85;26038;-83
2021/10/19 03:22:26;;;;;;;15.80;11.18;;;;;;;9.55;90.37;101541.55;1686000;82;25962;-83
2021/10/19 03:24:56;;;;;;;16.07;11.45;;;;;;;9.57;90.58;101538.21;1720358;82;25878;-83
2021/10/19 03:27:23;;;;;;;15.83;12.05;;;;;;;9.56;90.46;101533.03;1666000;83;26005;-83
2021/10/19 03:29:50;;;;;;;15.98;12.15;;;;;;;9.52;90.44;101534.31;1704561;82;27477;-84
2021/10/19 03:32:22;;;;;;;15.30;11.65;;;;;;;9.51;90.60;101533.50;1650367;85;26514;-83
2021/10/19 03:34:49;;;;;;;16.42;12.55;;;;;;;9.48;90.63;101529.78;1665874;83;25846;-83
2021/10/19 03:37:16;;;;;;;15.05;12.05;;;;;;;9.48;90.67;101524.44;1733841;82;25792;-83
2021/10/19 03:39:43;;;;;;;15.08;11.68;;;;;;;9.46;90.79;101534.45;1683168;82;25788;-83
2021/10/19 03:42:10;;;;;;;18.75;13.90;;;;;;;9.44;90.86;101523.56;1649419;83;28268;-83
2021/10/19 03:44:37;;;;;;;21.37;14.15;;;;;;;9.46;91.02;101518.90;1744342;81;25967;-83
2021/10/19 03:47:04;;;;;;;20.15;14.90;;;;;;;9.48;91.08;101516.91;1724822;82;25868;-83
2021/10/19 03:49:31;;;;;;;19.98;15.15;;;;;;;9.49;91.17;101514.59;1669120;83;26005;-82
2021/10/19 03:51:58;;;;;;;20.77;14.60;;;;;;;9.44;91.07;101508.37;1715728;82;26207;-83
2021/10/19 03:54:25;;;;;;;21.02;14.50;;;;;;;9.39;91.08;101509.33;1693198;83;27562;-83
2021/10/19 03:56:52;;;;;;;19.17;14.50;;;;;;;9.37;91.13;101507.83;1710031;82;25924;-83
2021/10/19 03:59:19;;;;;;;19.95;14.58;;;;;;;9.36;91.31;101515.01;1672722;82;25881;-83
2021/10/19 04:01:46;;;;;;;18.62;13.85;;;;;;;9.36;91.27;101511.00;1695359;83;25929;-82
2021/10/19 04:04:13;;;;;;;19.62;14.65;;;;;;;9.34;91.36;101512.98;1675457;83;25711;-83
2021/10/19 04:06:41;;;;;;;18.30;14.40;;;;;;;9.34;91.43;101512.98;1730674;82;28505;-83
2021/10/19 04:09:08;;;;;;;22.13;15.50;;;;;;;9.34;91.59;101511.13;1717320;83;25814;-83
2021/10/19 04:11:35;;;;;;;19.02;15.03;;;;;;;9.32;91.52;101512.31;1667620;82;26017;-82
2021/10/19 04:14:02;;;;;;;25.15;17.32;;;;;;;9.32;91.70;101511.78;1692656;83;25902;-83
2021/10/19 04:16:29;;;;;;;22.73;16.82;;;;;;;9.29;91.79;101511.27;1725999;82;25832;-82
2021/10/19 04:18:56;;;;;;;22.90;16.70;;;;;;;9.29;91.87;101520.63;1719254;82;28070;-83
2021/10/19 04:21:24;;;;;;;20.92;14.98;;;;;;;9.26;92.01;101520.44;1661297;82;26183;-83
2021/10/19 04:23:52;;;;;;;18.12;13.43;;;;;;;9.25;92.06;101520.11;1682594;82;25864;-83
2021/10/19 04:26:19;;;;;;;19.45;13.32;;;;;;;9.25;92.04;101525.95;1716666;82;25813;-83
2021/10/19 04:28:46;;;;;;;19.77;14.10;;;;;;;9.25;92.11;101525.45;1668571;83;25831;-83
2021/10/19 04:31:14;;;;;;;18.80;13.38;;;;;;;9.26;92.11;101531.63;1701945;82;27621;-83
2021/10/19 04:33:41;;;;;;;19.55;13.90;;;;;;;9.24;92.16;101533.12;1692654;83;25894;-84
2021/10/19 04:36:08;;;;;;;21.35;15.23;;;;;;;9.24;92.32;101526.44;1712364;82;26008;-83
2021/10/19 04:38:36;;;;;;;20.57;15.72;;;;;;;9.25;92.37;101528.13;1664516;84;26580;-82
2021/10/19 04:41:04;;;;;;;24.05;16.07;;;;;;;9.29;92.42;101532.66;1669778;82;43483;-82
2021/10/19 04:43:31;;;;;;;23.40;16.25;;;;;;;9.30;92.40;101539.17;1663639;83;27386;-83
2021/10/19 04:45:59;;;;;;;25.57;17.02;;;;;;;9.32;92.33;101544.39;1723408;82;25864;-83
2021/10/19 04:48:27;;;;;;;21.40;16.20;;;;;;;9.34;92.39;101547.23;1718199;83;25847;-82
2021/10/19 04:50:56;;;;;;;24.80;17.87;;;;;;;9.38;92.36;101546.93;1675142;84;25887;-84
2021/10/19 04:53:23;;;;;;;22.58;16.87;;;;;;;9.39;92.31;101550.77;1655237;85;26570;-83
2021/10/19 04:55:50;;;;;;;21.45;16.77;;;;;;;9.40;92.36;101545.78;1711083;81;27477;-83
2021/10/19 04:58:17;;;;;;;22.77;16.45;;;;;;;9.41;92.26;101542.09;1725175;81;26038;-83
2021/10/19 05:00:47;;;;;;;25.08;17.48;;;;;;;9.44;92.30;101548.48;1677179;82;26190;-83
2021/10/19 05:03:16;;;;;;;24.77;17.75;;;;;;;9.47;92.29;101546.00;1699014;82;26201;-83
2021/10/19 05:05:45;;;;;;;30.02;18.87;;;;;;;9.49;92.30;101547.53;1727398;82;25744;-82
2021/10/19 05:08:12;;;;;;;24.52;17.55;;;;;;;9.51;92.35;101544.69;1728110;82;28215;-83
2021/10/19 05:10:39;;;;;;;26.93;18.32;;;;;;;9.52;92.29;101547.20;1681222;82;25780;-83
2021/10/19 05:13:06;;;;;;;28.98;18.00;;;;;;;9.53;92.31;101550.22;1671624;82;26025;-83
2021/10/19 05:15:33;;;;;;;24.43;17.57;;;;;;;9.54;92.31;101545.72;1728429;82;25763;-83
2021/10/19 05:18:00;;;;;;;25.43;18.42;;;;;;;9.56;92.33;101548.55;1727286;82;25943;-83
2021/10/19 05:20:27;;;;;;;26.30;17.98;;;;;;;9.58;92.29;101551.09;1695275;82;27487;-83
2021/10/19 05:22:56;;;;;;;26.02;18.55;;;;;;;9.59;92.27;101546.92;1667335;83;25965;-83
2021/10/19 05:25:24;;;;;;;27.55;20.23;;;;;;;9.61;92.28;101546.26;1726595;82;25972;-83
2021/10/19 05:27:51;;;;;;;26.02;18.57;;;;;;;9.63;92.22;101556.79;1727810;82;26400;-83
2021/10/19 05:30:19;;;;;;;27.37;19.55;;;;;;;9.63;92.22;101548.77;1670960;82;26012;-82
2021/10/19 05:32:46;;;;;;;28.35;20.23;;;;;;;9.64;92.32;101547.78;1677292;82;27404;-83
2021/10/19 05:35:13;;;;;;;27.17;19.25;;;;;;;9.63;92.33;101546.94;1738652;82;25907;-84
2021/10/19 05:37:40;;;;;;;28.02;20.30;;;;;;;9.65;92.31;101543.61;1721029;82;25883;-82
2021/10/19 05:40:09;;;;;;;25.27;18.35;;;;;;;9.66;92.33;101539.95;1671945;84;25984;-83
2021/10/19 05:42:37;;;;;;;29.70;18.20;;;;;;;9.68;92.35;101544.64;1701877;82;25865;-83
2021/10/19 05:45:06;;;;;;;25.25;17.37;;;;;;;9.69;92.34;101536.94;1730958;82;27440;-82
2021/10/19 05:47:33;;;;;;;25.80;18.62;;;;;;;9.70;92.38;101538.63;1729043;82;25804;-83
2021/10/19 05:50:00;;;;;;;31.75;18.85;;;;;;;9.71;92.36;101536.28;1673597;84;25881;-82
2021/10/19 05:52:28;;;;;;;26.87;17.57;;;;;;;9.72;92.42;101542.48;1660185;82;25768;-82
2021/10/19 05:54:55;;;;;;;26.05;17.98;;;;;;;9.72;92.43;101539.31;1703529;82;25990;-83
2021/10/19 05:57:22;;;;;;;27.67;16.55;;;;;;;9.72;92.46;101543.81;1702542;82;28197;-83
2021/10/19 05:59:49;;;;;;;25.60;17.57;;;;;;;9.71;92.51;101544.30;1658819;83;26141;-82
2021/10/19 06:02:16;;;;;;;31.10;17.73;;;;;;;9.72;92.59;101548.67;1665834;85;25877;-84
2021/10/19 06:04:43;;;;;;;28.27;17.35;;;;;;;9.73;92.66;101550.34;1668060;85;25921;-83
2021/10/19 06:07:10;;;;;;;28.30;18.62;;;;;;;9.75;92.63;101548.34;1699757;83;25772;-83
2021/10/19 06:09:37;;;;;;;31.93;19.15;;;;;;;9.77;92.71;101552.22;1657988;85;28041;-83
2021/10/19 06:12:05;;;;;;;28.83;18.60;;;;;;;9.79;92.77;101559.58;1652651;85;25928;-83
2021/10/19 06:14:32;;;;;;;32.95;19.15;;;;;;;9.82;92.78;101560.59;1696046;83;25841;-83
2021/10/19 06:16:59;;;;;;;28.05;18.07;;;;;;;9.84;92.79;101556.77;1691874;83;25861;-83
2021/10/19 06:19:26;;;;;;;33.53;19.57;;;;;;;9.86;92.83;101555.25;1625714;85;26639;-84
2021/10/19 06:21:53;;;;;;;34.20;19.57;;;;;;;9.87;92.92;101551.11;1632829;83;27899;-83
2021/10/19 06:24:20;;;;;;;30.62;19.07;;;;;;;9.90;93.01;101556.64;1696800;83;25774;-84
2021/10/19 06:26:47;;;;;;;31.90;17.90;;;;;;;9.93;93.05;101559.83;1671494;83;25374;-83
2021/10/19 06:29:15;;;;;;;28.05;18.60;;;;;;;9.95;93.10;101560.51;1626022;85;25977;-83
2021/10/19 06:31:42;;;;;;;31.15;20.08;;;;;;;9.99;93.15;101557.00;1660020;83;26368;-84
2021/10/19 06:34:10;;;;;;;31.62;20.32;;;;;;;10.00;93.16;101559.55;1697559;83;27426;-83
2021/10/19 06:36:37;;;;;;;30.68;18.55;;;;;;;10.02;93.16;101559.37;1697109;83;25344;-83
2021/10/19 06:39:06;;;;;;;30.72;20.80;;;;;;;10.03;93.24;101557.02;1654354;83;26568;-83
2021/10/19 06:41:34;;;;;;;35.55;19.75;;;;;;;10.06;93.36;101556.71;1652329;83;25942;-82
2021/10/19 06:44:01;;;;;;;30.80;19.57;;;;;;;10.09;93.45;101556.41;1696167;83;25845;-83
2021/10/19 06:46:28;;;;;;;35.03;20.15;;;;;;;10.12;93.50;101553.42;1698615;83;27513;-83
2021/10/19 06:48:55;;;;;;;28.52;18.48;;;;;;;10.15;93.50;101554.95;1655546;85;25838;-83
2021/10/19 06:51:22;;;;;;;30.48;20.12;;;;;;;10.18;93.58;101548.75;1677126;83;25847;-82
2021/10/19 06:53:49;;;;;;;30.72;19.32;;;;;;;10.24;93.66;101549.97;1672998;83;26397;-83
2021/10/19 06:56:16;;;;;;;28.30;19.15;;;;;;;10.26;93.68;101547.47;1691317;82;25752;-83
2021/10/19 06:58:44;;;;;;;28.23;19.20;;;;;;;10.30;93.77;101548.83;1675800;85;28372;-82
2021/10/19 07:01:11;;;;;;;26.52;18.15;;;;;;;10.34;93.73;101552.85;1643294;83;25985;-83
2021/10/19 07:03:38;;;;;;;30.70;21.02;;;;;;;10.38;93.80;101560.05;1658191;85;26406;-83
2021/10/19 07:06:05;;;;;;;29.10;19.73;;;;;;;10.42;93.80;101553.37;1700292;83;26028;-82
2021/10/19 07:08:33;;;;;;;30.50;19.77;;;;;;;10.46;93.94;101548.02;1699005;83;25774;-82
2021/10/19 07:11:01;;;;;;;26.57;19.12;;;;;;;10.49;94.01;101545.87;1658006;83;27658;-83
2021/10/19 07:13:28;;;;;;;29.48;19.57;;;;;;;10.52;94.09;101538.02;1679052;84;25874;-83
2021/10/19 07:15:56;;;;;;;32.95;21.07;;;;;;;10.56;94.10;101542.05;1702678;83;25861;-83
2021/10/19 07:18:25;;;;;;;32.13;19.82;;;;;;;10.59;94.25;101541.20;1700138;83;25984;-83
2021/10/19 07:20:53;;;;;;;31.75;21.02;;;;;;;10.64;94.44;101536.20;1659403;83;25653;-83
2021/10/19 07:23:21;;;;;;;32.58;20.20;;;;;;;10.68;94.59;101541.56;1647118;83;27507;-82
2021/10/19 07:25:48;;;;;;;32.00;21.25;;;;;;;10.74;94.74;101541.39;1695756;83;25797;-82
2021/10/19 07:28:15;;;;;;;84.25;47.78;;;;;;;10.78;94.76;101538.22;1660152;83;25973;-82
2021/10/19 07:30:43;;;;;;;51.55;31.37;;;;;;;10.81;94.67;101537.91;1658094;85;25783;-81
2021/10/19 07:33:10;;;;;;;38.02;23.77;;;;;;;10.87;94.75;101541.75;1628665;85;25771;-83
2021/10/19 07:35:37;;;;;;;34.65;21.90;;;;;;;10.90;94.74;101541.93;1684820;83;27462;-82
2021/10/19 07:38:05;;;;;;;34.38;22.45;;;;;;;10.92;94.82;101534.06;1668230;83;25522;-82
2021/10/19 07:40:32;;;;;;;40.38;24.55;;;;;;;10.97;94.89;101537.06;1655740;85;25882;-83
2021/10/19 07:42:59;;;;;;;39.00;25.10;;;;;;;11.02;95.00;101534.73;1657521;85;25852;-83
2021/10/19 07:45:26;;;;;;;41.68;25.12;;;;;;;11.06;94.93;101533.39;1699400;83;26401;-82
2021/10/19 07:47:54;;;;;;;37.65;24.75;;;;;;;11.11;94.88;101535.08;1694064;83;27626;-82
2021/10/19 07:50:22;;;;;;;38.55;25.23;;;;;;;11.16;94.90;101534.05;1656313;85;26128;-82
2021/10/19 07:52:51;;;;;;;35.35;25.27;;;;;;;11.21;94.84;101528.19;1655664;85;26187;-82
2021/10/19 07:55:19;;;;;;;43.38;27.70;;;;;;;11.25;94.88;101528.19;1658350;83;25933;-82
2021/10/19 07:57:51;;;;;;;36.25;24.70;;;;;;;11.29;94.84;101526.87;1678796;83;26596;-82
2021/10/19 08:00:24;;;;;;;37.73;26.20;;;;;;;11.34;94.91;101532.54;1672228;84;28204;-83
2021/10/19 08:02:53;;;;;;;38.88;26.30;;;;;;;11.39;94.87;101527.52;1697275;83;25854;-83
2021/10/19 08:05:21;;;;;;;41.95;25.97;;;;;;;11.44;94.89;101531.88;1716060;82;25550;-83
2021/10/19 08:07:51;;;;;;;38.53;25.97;;;;;;;11.48;94.82;101531.34;1719171;82;25911;-82
2021/10/19 08:10:22;;;;;;;43.20;25.80;;;;;;;11.52;94.59;101530.52;1667607;84;26297;-83
2021/10/19 08:12:50;;;;;;;36.35;25.43;;;;;;;11.54;94.30;101536.06;1701692;82;27521;-83
2021/10/19 08:15:18;;;;;;;37.65;24.35;;;;;;;11.61;94.37;101538.91;1730677;82;25861;-83
2021/10/19 08:17:48;;;;;;;41.88;26.95;;;;;;;11.65;94.14;101542.91;1694909;83;25865;-83
2021/10/19 08:20:16;;;;;;;37.08;24.25;;;;;;;11.67;94.37;101540.93;1707002;82;25912;-82
2021/10/19 08:22:45;;;;;;;39.18;24.55;;;;;;;11.68;93.91;101526.98;1676853;82;25806;-82
2021/10/19 08:25:12;;;;;;;37.45;25.72;;;;;;;11.69;93.71;101527.33;1725253;82;27685;-83
2021/10/19 08:27:43;;;;;;;34.53;23.07;;;;;;;11.71;93.61;101525.31;1691041;82;25901;-83
2021/10/19 08:30:14;;;;;;;38.80;24.70;;;;;;;11.70;93.41;101525.81;1661363;82;25783;-82
2021/10/19 08:32:42;;;;;;;33.58;23.20;;;;;;;11.72;93.39;101522.45;1692900;83;25836;-83
2021/10/19 08:35:11;;;;;;;37.90;24.37;;;;;;;11.74;93.15;101527.66;1696243;82;25840;-83
2021/10/19 08:37:38;;;;;;;37.90;26.20;;;;;;;11.78;93.26;101528.49;1720528;82;28252;-83
2021/10/19 08:40:06;;;;;;;38.42;25.37;;;;;;;11.86;93.29;101530.30;1672439;82;25864;-82
2021/10/19 08:42:35;;;;;;;34.78;24.80;;;;;;;11.91;93.38;101531.45;1727492;82;25888;-83
2021/10/19 08:45:02;;;;;;;38.70;25.85;;;;;;;11.99;93.23;101531.45;1724421;82;25924;-83
2021/10/19 08:47:29;;;;;;;37.53;25.90;;;;;;;12.07;93.14;101534.09;1696981;82;26586;-83
2021/10/19 08:49:56;;;;;;;35.50;24.15;;;;;;;12.15;92.99;101534.05;1676800;83;28256;-85
2021/10/19 08:52:24;;;;;;;36.95;24.25;;;;;;;12.18;92.61;101539.09;1722450;82;26082;-82
2021/10/19 08:54:51;;;;;;;36.28;26.57;;;;;;;12.20;92.30;101533.03;1731520;82;25984;-83
2021/10/19 08:57:18;;;;;;;38.17;27.13;;;;;;;12.23;92.45;101531.33;1695820;82;26064;-83
2021/10/19 08:59:48;;;;;;;34.43;24.82;;;;;;;12.30;92.57;101525.59;1641118;82;25935;-82
2021/10/19 09:02:16;;;;;;;33.65;22.55;;;;;;;12.38;92.31;101521.52;1666277;83;27543;-83
2021/10/19 09:04:43;;;;;;;33.13;22.75;;;;;;;12.47;92.37;101525.53;1725962;82;26120;-82
2021/10/19 09:07:11;;;;;;;37.70;23.15;;;;;;;12.55;92.53;101530.84;1693431;82;25895;-82
2021/10/19 09:09:38;;;;;;;31.12;22.15;;;;;;;12.61;92.28;101530.13;1668532;83;25954;-83
2021/10/19 09:12:06;;;;;;;32.53;20.52;;;;;;;12.66;92.08;101529.11;1694897;83;25873;-82
2021/10/19 09:14:40;;;;;;;31.20;22.13;;;;;;;12.72;91.75;101535.11;1731908;82;28086;-82
2021/10/19 09:17:09;;;;;;;30.45;21.00;;;;;;;12.75;91.88;101531.55;1710118;82;25844;-82
2021/10/19 09:19:37;;;;;;;26.10;19.12;;;;;;;12.83;92.04;101526.64;1685284;82;25820;-82
2021/10/19 09:22:08;;;;;;;28.67;20.02;;;;;;;12.90;91.89;101524.88;1670146;82;25849;-82
2021/10/19 09:24:39;;;;;;;30.08;19.67;;;;;;;12.96;91.84;101520.12;1718926;82;25753;-82
2021/10/19 09:27:10;;;;;;;28.17;19.07;;;;;;;12.98;91.71;101510.87;1719203;82;27405;-83
2021/10/19 09:29:47;;;;;;;24.25;17.62;;;;;;;13.03;91.51;101510.33;1696954;82;26225;-83
2021/10/19 09:32:17;;;;;;;24.57;16.77;;;;;;;13.07;91.34;101511.67;1680264;83;25999;-82
2021/10/19 09:34:45;;;;;;;26.82;18.15;;;;;;;13.13;90.62;101502.38;1741672;82;25390;-83
2021/10/19 09:37:22;;;;;;;28.85;16.70;;;;;;;13.22;90.67;101500.95;1687178;83;26020;-83
2021/10/19 09:39:51;;;;;;;22.60;16.02;;;;;;;13.28;90.32;101495.67;1712206;82;27538;-84
2021/10/19 09:42:26;;;;;;;21.65;15.55;;;;;;;13.37;90.52;101491.89;1666807;83;26512;-84
2021/10/19 09:45:02;;;;;;;24.37;16.97;;;;;;;13.46;89.66;101487.27;1719462;82;25790;-84
2021/10/19 09:47:37;;;;;;;26.82;18.60;;;;;;;13.55;89.46;101492.40;1689498;82;25876;-84
2021/10/19 09:50:07;;;;;;;24.37;17.67;;;;;;;13.63;88.38;101495.50;1692159;83;26035;-83
2021/10/19 09:52:37;;;;;;;27.10;18.00;;;;;;;13.73;89.02;101489.32;1671210;82;27641;-83
2021/10/19 09:55:11;;;;;;;24.87;17.57;;;;;;;13.83;88.94;101488.05;1708681;82;25750;-84
2021/10/19 09:57:39;;;;;;;31.70;18.80;;;;;;;13.91;87.94;101493.84;1734681;82;25844;-84
2021/10/19 10:00:07;;;;;;;27.65;19.07;;;;;;;13.94;87.74;101493.48;1690511;83;25962;-84
2021/10/19 10:02:40;;;;;;;45.03;20.20;;;;;;;13.97;87.20;101489.05;1675846;82;25326;-83
2021/10/19 10:05:08;;;;;;;24.23;18.05;;;;;;;13.98;86.83;101485.84;1729837;81;27385;-84
2021/10/19 10:07:38;;;;;;;27.85;19.02;;;;;;;13.97;86.09;101485.50;1710249;81;25819;-84
2021/10/19 10:10:06;;;;;;;30.12;19.02;;;;;;;13.97;86.28;101479.61;1688454;83;26412;-84
2021/10/19 10:12:35;;;;;;;26.37;18.48;;;;;;;13.99;86.57;101480.27;1702892;83;26427;-84
2021/10/19 10:15:03;;;;;;;28.77;18.30;;;;;;;14.01;86.35;101474.70;1735644;81;25888;-84
2021/10/19 10:17:30;;;;;;;31.68;20.05;;;;;;;14.03;86.29;101466.73;1722181;82;27355;-83
2021/10/19 10:20:08;;;;;;;27.73;19.27;;;;;;;14.04;85.82;101466.23;1675050;82;25891;-85
2021/10/19 10:22:44;;;;;;;28.85;19.50;;;;;;;14.05;85.71;101464.69;1701087;82;25951;-84
2021/10/19 10:25:18;;;;;;;26.20;18.92;;;;;;;14.08;85.37;101460.28;1721468;82;25852;-84
2021/10/19 10:27:45;;;;;;;27.98;19.85;;;;;;;14.11;85.56;101453.69;1698261;82;26062;-84
2021/10/19 10:30:25;;;;;;;28.00;18.15;;;;;;;14.14;85.49;101450.59;1653886;82;27492;-84
2021/10/19 10:32:55;;;;;;;29.40;19.42;;;;;;;14.18;85.33;101454.08;1688983;82;25901;-84
2021/10/19 10:35:25;;;;;;;25.95;18.70;;;;;;;14.23;85.14;101456.20;1687878;82;25863;-84
2021/10/19 10:37:56;;;;;;;26.62;18.42;;;;;;;14.25;84.96;101453.65;1731816;82;26856;-84
2021/10/19 10:40:34;;;;;;;;;;;;;;;14.27;84.91;101451.59;1732949;82;26532;-83
2021/10/19 10:43:19;;;;;;;21.95;15.85;;;;;;;14.28;84.47;101447.05;1688014;82;27569;-83
2021/10/19 10:46:08;;;;;;;23.77;15.90;;;;;;;14.25;84.47;101452.30;1693988;83;25912;-83
2021/10/19 10:48:36;;;;;;;20.02;15.10;;;;;;;14.25;83.69;101447.42;1720825;82;25931;-83
2021/10/19 10:51:05;;;;;;;19.35;15.80;;;;;;;14.25;83.51;101449.61;1727465;82;26493;-82
2021/10/19 10:53:42;;;;;;;24.67;16.10;;;;;;;14.26;82.94;101443.20;1728349;82;25910;-83
2021/10/19 10:56:12;;;;;;;22.77;16.27;;;;;;;14.28;82.81;101444.36;1691711;83;28074;-83
2021/10/19 10:58:41;;;;;;;25.50;16.00;;;;;;;14.27;82.11;101443.52;1688432;83;26468;-82
2021/10/19 11:01:28;;;;;;;24.00;15.58;;;;;;;14.28;82.15;101441.16;1655812;85;25873;-82
2021/10/19 11:04:08;;;;;;;20.17;14.35;;;;;;;14.32;82.63;101447.02;1644508;85;26448;-82
2021/10/19 11:06:38;;;;;;;22.83;14.67;;;;;;;14.37;82.29;101452.15;1679501;84;26660;-82
2021/10/19 11:09:12;;;;;;;21.27;14.00;;;;;;;14.42;81.18;101458.32;1684314;85;27580;-83
2021/10/19 11:11:42;;;;;;;20.60;14.20;;;;;;;14.44;80.17;101450.87;1653997;83;25936;-83
2021/10/19 11:14:16;;;;;;;22.73;14.95;;;;;;;14.45;80.58;101459.30;1679266;85;26599;-83
2021/10/19 11:16:46;;;;;;;19.23;13.55;;;;;;;14.48;80.35;101446.77;1664085;85;25920;-82
2021/10/19 11:19:23;;;;;;;21.95;14.30;;;;;;;14.53;80.17;101450.58;1691873;83;25965;-82